sensor_id;sensor_type;location;lat;lon;timestamp;P1;durP1;ratioP1;P2;durP2;ratioP2
11034;SDS011;5571;48.110;-1.706;2023-07-31T00:00:13;18.05;;;6.43;;
11034;SDS011;5571;48.110;-1.706;2023-07-31T00:02:39;16.50;;;6.40;;
11034;SDS011;5571;48.110;-1.706;2023-07-31T00:05:04;19.17;;;6.32;;
11034;SDS011;5571;48.110;-1.706;2023-07-31T00:07:31;15.85;;;6.63;;
11034;SDS011;5571;48.110;-1.706;2023-07-31T00:09:57;22.73;;;6.57;;
11034;SDS011;5571;48.110;-1.706;2023-07-31T00:12:23;18.45;;;6.85;;
11034;SDS011;5571;48.110;-1.706;2023-07-31T00:14:48;20.08;;;6.47;;
11034;SDS011;5571;48.110;-1.706;2023-07-31T00:17:14;16.95;;;6.32;;
11034;SDS011;5571;48.110;-1.706;2023-07-31T00:19:41;17.17;;;6.40;;
11034;SDS011;5571;48.110;-1.706;2023-07-31T00:22:07;18.73;;;6.63;;
11034;SDS011;5571;48.110;-1.706;2023-07-31T00:24:33;23.83;;;6.32;;
11034;SDS011;5571;48.110;-1.706;2023-07-31T00:26:58;17.92;;;6.30;;
11034;SDS011;5571;48.110;-1.706;2023-07-31T00:29:24;16.27;;;6.78;;
11034;SDS011;5571;48.110;-1.706;2023-07-31T00:31:49;16.55;;;6.38;;
11034;SDS011;5571;48.110;-1.706;2023-07-31T00:34:15;18.45;;;6.13;;
11034;SDS011;5571;48.110;-1.706;2023-07-31T00:36:40;20.67;;;6.68;;
11034;SDS011;5571;48.110;-1.706;2023-07-31T00:39:06;18.00;;;6.10;;
11034;SDS011;5571;48.110;-1.706;2023-07-31T00:41:32;18.10;;;7.15;;
11034;SDS011;5571;48.110;-1.706;2023-07-31T00:43:57;17.02;;;6.35;;
11034;SDS011;5571;48.110;-1.706;2023-07-31T00:46:23;17.27;;;6.38;;
11034;SDS011;5571;48.110;-1.706;2023-07-31T00:48:49;21.27;;;6.65;;
11034;SDS011;5571;48.110;-1.706;2023-07-31T00:51:14;19.10;;;6.65;;
11034;SDS011;5571;48.110;-1.706;2023-07-31T00:53:40;21.60;;;6.82;;
11034;SDS011;5571;48.110;-1.706;2023-07-31T00:56:07;19.52;;;7.32;;
11034;SDS011;5571;48.110;-1.706;2023-07-31T00:58:33;19.45;;;6.75;;
11034;SDS011;5571;48.110;-1.706;2023-07-31T01:00:59;17.88;;;6.93;;
11034;SDS011;5571;48.110;-1.706;2023-07-31T01:03:24;17.65;;;7.00;;
11034;SDS011;5571;48.110;-1.706;2023-07-31T01:06:06;22.38;;;7.20;;
11034;SDS011;5571;48.110;-1.706;2023-07-31T01:09:16;22.90;;;7.72;;
11034;SDS011;5571;48.110;-1.706;2023-07-31T01:12:00;20.85;;;6.88;;
11034;SDS011;5571;48.110;-1.706;2023-07-31T01:14:27;19.35;;;6.43;;
11034;SDS011;5571;48.110;-1.706;2023-07-31T01:16:53;19.02;;;6.65;;
11034;SDS011;5571;48.110;-1.706;2023-07-31T01:19:21;20.17;;;6.97;;
11034;SDS011;5571;48.110;-1.706;2023-07-31T01:25:28;16.00;;;5.80;;
11034;SDS011;5571;48.110;-1.706;2023-07-31T01:28:25;21.42;;;6.38;;
11034;SDS011;5571;48.110;-1.706;2023-07-31T01:31:12;18.23;;;6.28;;
11034;SDS011;5571;48.110;-1.706;2023-07-31T01:33:41;17.98;;;5.93;;
11034;SDS011;5571;48.110;-1.706;2023-07-31T01:36:07;22.58;;;6.70;;
11034;SDS011;5571;48.110;-1.706;2023-07-31T01:38:33;14.05;;;6.35;;
11034;SDS011;5571;48.110;-1.706;2023-07-31T01:40:59;15.30;;;6.10;;
11034;SDS011;5571;48.110;-1.706;2023-07-31T01:43:24;17.38;;;6.13;;
11034;SDS011;5571;48.110;-1.706;2023-07-31T01:45:50;22.38;;;7.10;;
11034;SDS011;5571;48.110;-1.706;2023-07-31T01:48:15;19.42;;;6.70;;
11034;SDS011;5571;48.110;-1.706;2023-07-31T01:50:41;16.70;;;6.35;;
11034;SDS011;5571;48.110;-1.706;2023-07-31T01:53:07;17.08;;;6.50;;
11034;SDS011;5571;48.110;-1.706;2023-07-31T01:55:32;17.23;;;6.80;;
11034;SDS011;5571;48.110;-1.706;2023-07-31T01:57:58;19.10;;;6.43;;
11034;SDS011;5571;48.110;-1.706;2023-07-31T02:00:23;16.63;;;6.18;;
11034;SDS011;5571;48.110;-1.706;2023-07-31T02:02:49;19.63;;;6.57;;
11034;SDS011;5571;48.110;-1.706;2023-07-31T02:05:14;18.00;;;6.45;;
11034;SDS011;5571;48.110;-1.706;2023-07-31T02:07:40;16.60;;;6.40;;
11034;SDS011;5571;48.110;-1.706;2023-07-31T02:10:06;18.02;;;6.50;;
11034;SDS011;5571;48.110;-1.706;2023-07-31T02:12:31;15.55;;;5.90;;
11034;SDS011;5571;48.110;-1.706;2023-07-31T02:14:58;14.43;;;6.55;;
11034;SDS011;5571;48.110;-1.706;2023-07-31T02:17:24;17.30;;;6.18;;
11034;SDS011;5571;48.110;-1.706;2023-07-31T02:19:49;16.10;;;6.32;;
11034;SDS011;5571;48.110;-1.706;2023-07-31T02:22:15;17.55;;;5.95;;
11034;SDS011;5571;48.110;-1.706;2023-07-31T02:24:41;16.27;;;6.43;;
11034;SDS011;5571;48.110;-1.706;2023-07-31T02:27:06;21.88;;;7.22;;
11034;SDS011;5571;48.110;-1.706;2023-07-31T02:29:32;15.93;;;6.60;;
11034;SDS011;5571;48.110;-1.706;2023-07-31T02:31:57;15.90;;;7.00;;
11034;SDS011;5571;48.110;-1.706;2023-07-31T02:34:23;20.33;;;6.38;;
11034;SDS011;5571;48.110;-1.706;2023-07-31T02:36:49;14.57;;;6.38;;
11034;SDS011;5571;48.110;-1.706;2023-07-31T02:39:14;13.20;;;6.82;;
11034;SDS011;5571;48.110;-1.706;2023-07-31T02:41:40;21.40;;;7.32;;
11034;SDS011;5571;48.110;-1.706;2023-07-31T02:44:05;18.58;;;6.80;;
11034;SDS011;5571;48.110;-1.706;2023-07-31T02:46:31;17.00;;;6.82;;
11034;SDS011;5571;48.110;-1.706;2023-07-31T02:48:56;19.15;;;6.65;;
11034;SDS011;5571;48.110;-1.706;2023-07-31T02:51:22;21.55;;;6.20;;
11034;SDS011;5571;48.110;-1.706;2023-07-31T02:53:48;17.95;;;6.95;;
11034;SDS011;5571;48.110;-1.706;2023-07-31T02:56:14;18.65;;;6.30;;
11034;SDS011;5571;48.110;-1.706;2023-07-31T02:58:40;19.70;;;6.70;;
11034;SDS011;5571;48.110;-1.706;2023-07-31T03:01:05;19.02;;;6.30;;
11034;SDS011;5571;48.110;-1.706;2023-07-31T03:03:31;17.05;;;6.38;;
11034;SDS011;5571;48.110;-1.706;2023-07-31T03:05:56;15.35;;;5.70;;
11034;SDS011;5571;48.110;-1.706;2023-07-31T03:08:22;18.65;;;5.93;;
11034;SDS011;5571;48.110;-1.706;2023-07-31T03:10:48;18.70;;;6.38;;
11034;SDS011;5571;48.110;-1.706;2023-07-31T03:13:13;15.30;;;6.32;;
11034;SDS011;5571;48.110;-1.706;2023-07-31T03:15:41;15.23;;;6.13;;
11034;SDS011;5571;48.110;-1.706;2023-07-31T03:18:08;16.15;;;6.03;;
11034;SDS011;5571;48.110;-1.706;2023-07-31T03:20:33;17.98;;;6.70;;
11034;SDS011;5571;48.110;-1.706;2023-07-31T03:22:59;15.55;;;6.25;;
11034;SDS011;5571;48.110;-1.706;2023-07-31T03:25:25;15.45;;;6.20;;
11034;SDS011;5571;48.110;-1.706;2023-07-31T03:27:50;16.58;;;6.43;;
11034;SDS011;5571;48.110;-1.706;2023-07-31T03:30:16;17.42;;;6.03;;
11034;SDS011;5571;48.110;-1.706;2023-07-31T03:32:41;14.38;;;6.13;;
11034;SDS011;5571;48.110;-1.706;2023-07-31T03:35:07;13.75;;;5.97;;
11034;SDS011;5571;48.110;-1.706;2023-07-31T03:37:33;13.52;;;6.30;;
11034;SDS011;5571;48.110;-1.706;2023-07-31T03:39:58;16.35;;;6.05;;
11034;SDS011;5571;48.110;-1.706;2023-07-31T03:42:24;18.98;;;6.28;;
11034;SDS011;5571;48.110;-1.706;2023-07-31T03:44:49;15.02;;;6.00;;
11034;SDS011;5571;48.110;-1.706;2023-07-31T03:47:15;19.67;;;6.03;;
11034;SDS011;5571;48.110;-1.706;2023-07-31T03:49:40;16.63;;;6.18;;
11034;SDS011;5571;48.110;-1.706;2023-07-31T03:52:06;15.65;;;5.70;;
11034;SDS011;5571;48.110;-1.706;2023-07-31T03:54:32;16.85;;;5.85;;
11034;SDS011;5571;48.110;-1.706;2023-07-31T03:56:57;15.43;;;6.00;;
11034;SDS011;5571;48.110;-1.706;2023-07-31T03:59:23;15.27;;;6.50;;
11034;SDS011;5571;48.110;-1.706;2023-07-31T04:01:49;21.05;;;6.05;;
11034;SDS011;5571;48.110;-1.706;2023-07-31T04:04:14;18.63;;;6.28;;
11034;SDS011;5571;48.110;-1.706;2023-07-31T04:06:40;22.63;;;7.10;;
11034;SDS011;5571;48.110;-1.706;2023-07-31T04:09:05;19.25;;;6.50;;
11034;SDS011;5571;48.110;-1.706;2023-07-31T04:11:31;23.77;;;6.72;;
11034;SDS011;5571;48.110;-1.706;2023-07-31T04:13:57;15.52;;;5.45;;
11034;SDS011;5571;48.110;-1.706;2023-07-31T04:16:22;25.73;;;6.38;;
11034;SDS011;5571;48.110;-1.706;2023-07-31T04:18:48;15.60;;;6.13;;
11034;SDS011;5571;48.110;-1.706;2023-07-31T04:21:14;24.30;;;7.03;;
11034;SDS011;5571;48.110;-1.706;2023-07-31T04:23:39;18.05;;;5.80;;
11034;SDS011;5571;48.110;-1.706;2023-07-31T04:26:05;17.75;;;6.20;;
11034;SDS011;5571;48.110;-1.706;2023-07-31T04:28:30;18.13;;;5.50;;
11034;SDS011;5571;48.110;-1.706;2023-07-31T04:30:56;19.50;;;6.43;;
11034;SDS011;5571;48.110;-1.706;2023-07-31T04:33:22;24.50;;;6.18;;
11034;SDS011;5571;48.110;-1.706;2023-07-31T04:35:51;19.17;;;6.03;;
11034;SDS011;5571;48.110;-1.706;2023-07-31T04:38:18;16.42;;;6.50;;
11034;SDS011;5571;48.110;-1.706;2023-07-31T04:40:44;14.85;;;6.15;;
11034;SDS011;5571;48.110;-1.706;2023-07-31T04:43:10;15.68;;;6.00;;
11034;SDS011;5571;48.110;-1.706;2023-07-31T04:45:36;17.33;;;5.38;;
11034;SDS011;5571;48.110;-1.706;2023-07-31T04:48:01;19.13;;;5.97;;
11034;SDS011;5571;48.110;-1.706;2023-07-31T04:50:27;16.00;;;6.05;;
11034;SDS011;5571;48.110;-1.706;2023-07-31T04:52:52;14.57;;;6.75;;
11034;SDS011;5571;48.110;-1.706;2023-07-31T04:55:18;14.95;;;5.72;;
11034;SDS011;5571;48.110;-1.706;2023-07-31T04:57:43;13.82;;;5.40;;
11034;SDS011;5571;48.110;-1.706;2023-07-31T05:00:09;14.75;;;5.78;;
11034;SDS011;5571;48.110;-1.706;2023-07-31T05:02:35;18.80;;;5.82;;
11034;SDS011;5571;48.110;-1.706;2023-07-31T05:05:01;16.85;;;6.28;;
11034;SDS011;5571;48.110;-1.706;2023-07-31T05:07:26;18.55;;;6.05;;
11034;SDS011;5571;48.110;-1.706;2023-07-31T05:09:52;15.00;;;5.35;;
11034;SDS011;5571;48.110;-1.706;2023-07-31T05:12:17;16.83;;;5.72;;
11034;SDS011;5571;48.110;-1.706;2023-07-31T05:14:43;16.42;;;5.85;;
11034;SDS011;5571;48.110;-1.706;2023-07-31T05:17:09;18.75;;;5.97;;
11034;SDS011;5571;48.110;-1.706;2023-07-31T05:19:34;14.95;;;5.57;;
11034;SDS011;5571;48.110;-1.706;2023-07-31T05:22:00;15.55;;;5.88;;
11034;SDS011;5571;48.110;-1.706;2023-07-31T05:24:26;16.73;;;5.75;;
11034;SDS011;5571;48.110;-1.706;2023-07-31T05:26:51;15.18;;;5.25;;
11034;SDS011;5571;48.110;-1.706;2023-07-31T05:29:17;12.98;;;5.57;;
11034;SDS011;5571;48.110;-1.706;2023-07-31T05:31:42;14.93;;;5.63;;
11034;SDS011;5571;48.110;-1.706;2023-07-31T05:34:08;15.40;;;6.10;;
11034;SDS011;5571;48.110;-1.706;2023-07-31T05:36:34;16.73;;;5.40;;
11034;SDS011;5571;48.110;-1.706;2023-07-31T05:39:00;17.40;;;5.38;;
11034;SDS011;5571;48.110;-1.706;2023-07-31T05:41:31;14.60;;;5.22;;
11034;SDS011;5571;48.110;-1.706;2023-07-31T05:43:56;16.25;;;5.13;;
11034;SDS011;5571;48.110;-1.706;2023-07-31T05:46:22;17.48;;;5.72;;
11034;SDS011;5571;48.110;-1.706;2023-07-31T05:48:47;16.35;;;5.70;;
11034;SDS011;5571;48.110;-1.706;2023-07-31T05:51:13;17.13;;;5.45;;
11034;SDS011;5571;48.110;-1.706;2023-07-31T05:53:39;13.98;;;5.93;;
11034;SDS011;5571;48.110;-1.706;2023-07-31T05:56:05;17.42;;;5.43;;
11034;SDS011;5571;48.110;-1.706;2023-07-31T05:58:31;14.27;;;5.07;;
11034;SDS011;5571;48.110;-1.706;2023-07-31T06:00:57;15.77;;;5.30;;
11034;SDS011;5571;48.110;-1.706;2023-07-31T06:03:23;13.70;;;4.75;;
11034;SDS011;5571;48.110;-1.706;2023-07-31T06:05:48;15.45;;;4.95;;
11034;SDS011;5571;48.110;-1.706;2023-07-31T06:08:14;11.90;;;4.65;;
11034;SDS011;5571;48.110;-1.706;2023-07-31T06:10:39;13.48;;;4.20;;
11034;SDS011;5571;48.110;-1.706;2023-07-31T06:13:05;12.13;;;4.68;;
11034;SDS011;5571;48.110;-1.706;2023-07-31T06:15:30;9.65;;;4.28;;
11034;SDS011;5571;48.110;-1.706;2023-07-31T06:17:56;12.02;;;4.35;;
11034;SDS011;5571;48.110;-1.706;2023-07-31T06:20:22;14.70;;;4.97;;
11034;SDS011;5571;48.110;-1.706;2023-07-31T06:22:48;15.02;;;4.60;;
11034;SDS011;5571;48.110;-1.706;2023-07-31T06:25:13;17.00;;;5.10;;
11034;SDS011;5571;48.110;-1.706;2023-07-31T06:27:39;10.38;;;4.28;;
11034;SDS011;5571;48.110;-1.706;2023-07-31T06:30:05;15.32;;;4.72;;
11034;SDS011;5571;48.110;-1.706;2023-07-31T06:32:31;8.95;;;3.60;;
11034;SDS011;5571;48.110;-1.706;2023-07-31T06:34:57;7.85;;;3.70;;
11034;SDS011;5571;48.110;-1.706;2023-07-31T06:37:23;13.85;;;4.30;;
11034;SDS011;5571;48.110;-1.706;2023-07-31T06:39:48;15.18;;;4.65;;
11034;SDS011;5571;48.110;-1.706;2023-07-31T06:42:14;14.55;;;4.50;;
11034;SDS011;5571;48.110;-1.706;2023-07-31T06:44:39;14.77;;;5.03;;
11034;SDS011;5571;48.110;-1.706;2023-07-31T06:47:05;15.18;;;4.53;;
11034;SDS011;5571;48.110;-1.706;2023-07-31T06:49:34;17.50;;;4.82;;
11034;SDS011;5571;48.110;-1.706;2023-07-31T06:51:59;18.13;;;4.28;;
11034;SDS011;5571;48.110;-1.706;2023-07-31T06:54:25;10.93;;;3.90;;
11034;SDS011;5571;48.110;-1.706;2023-07-31T06:56:50;11.50;;;4.10;;
11034;SDS011;5571;48.110;-1.706;2023-07-31T06:59:16;13.68;;;4.63;;
11034;SDS011;5571;48.110;-1.706;2023-07-31T07:01:42;12.90;;;4.55;;
11034;SDS011;5571;48.110;-1.706;2023-07-31T07:04:07;14.10;;;4.95;;
11034;SDS011;5571;48.110;-1.706;2023-07-31T07:06:33;13.02;;;4.30;;
11034;SDS011;5571;48.110;-1.706;2023-07-31T07:08:58;11.90;;;4.05;;
11034;SDS011;5571;48.110;-1.706;2023-07-31T07:11:24;15.15;;;4.57;;
11034;SDS011;5571;48.110;-1.706;2023-07-31T07:13:50;11.65;;;4.10;;
11034;SDS011;5571;48.110;-1.706;2023-07-31T07:16:16;12.02;;;4.05;;
11034;SDS011;5571;48.110;-1.706;2023-07-31T07:18:42;15.70;;;4.18;;
11034;SDS011;5571;48.110;-1.706;2023-07-31T07:21:07;12.02;;;4.13;;
11034;SDS011;5571;48.110;-1.706;2023-07-31T07:23:33;12.75;;;4.32;;
11034;SDS011;5571;48.110;-1.706;2023-07-31T07:25:59;14.57;;;4.15;;
11034;SDS011;5571;48.110;-1.706;2023-07-31T07:28:25;12.95;;;3.97;;
11034;SDS011;5571;48.110;-1.706;2023-07-31T07:30:51;10.93;;;3.83;;
11034;SDS011;5571;48.110;-1.706;2023-07-31T07:33:18;11.20;;;4.30;;
11034;SDS011;5571;48.110;-1.706;2023-07-31T07:35:44;9.63;;;3.92;;
11034;SDS011;5571;48.110;-1.706;2023-07-31T07:38:10;10.85;;;3.70;;
11034;SDS011;5571;48.110;-1.706;2023-07-31T07:40:39;10.10;;;3.67;;
11034;SDS011;5571;48.110;-1.706;2023-07-31T07:43:05;12.82;;;4.20;;
11034;SDS011;5571;48.110;-1.706;2023-07-31T07:45:30;8.18;;;3.75;;
11034;SDS011;5571;48.110;-1.706;2023-07-31T07:47:56;9.13;;;4.10;;
11034;SDS011;5571;48.110;-1.706;2023-07-31T07:50:21;12.57;;;3.63;;
11034;SDS011;5571;48.110;-1.706;2023-07-31T07:52:47;11.55;;;3.70;;
11034;SDS011;5571;48.110;-1.706;2023-07-31T07:55:12;12.30;;;3.72;;
11034;SDS011;5571;48.110;-1.706;2023-07-31T07:57:38;9.15;;;4.15;;
11034;SDS011;5571;48.110;-1.706;2023-07-31T08:00:04;9.25;;;3.78;;
11034;SDS011;5571;48.110;-1.706;2023-07-31T08:02:30;10.10;;;4.07;;
11034;SDS011;5571;48.110;-1.706;2023-07-31T08:04:56;7.47;;;3.20;;
11034;SDS011;5571;48.110;-1.706;2023-07-31T08:07:22;6.47;;;3.53;;
11034;SDS011;5571;48.110;-1.706;2023-07-31T08:09:47;6.93;;;3.40;;
11034;SDS011;5571;48.110;-1.706;2023-07-31T08:12:13;12.00;;;3.42;;
11034;SDS011;5571;48.110;-1.706;2023-07-31T08:14:39;15.52;;;3.97;;
11034;SDS011;5571;48.110;-1.706;2023-07-31T08:17:04;10.00;;;3.30;;
11034;SDS011;5571;48.110;-1.706;2023-07-31T08:19:30;11.73;;;3.42;;
11034;SDS011;5571;48.110;-1.706;2023-07-31T08:21:56;7.15;;;3.22;;
11034;SDS011;5571;48.110;-1.706;2023-07-31T08:24:21;8.38;;;3.13;;
11034;SDS011;5571;48.110;-1.706;2023-07-31T08:26:47;12.52;;;3.45;;
11034;SDS011;5571;48.110;-1.706;2023-07-31T08:29:13;11.15;;;3.13;;
11034;SDS011;5571;48.110;-1.706;2023-07-31T08:31:39;8.40;;;3.25;;
11034;SDS011;5571;48.110;-1.706;2023-07-31T08:34:04;12.20;;;3.25;;
11034;SDS011;5571;48.110;-1.706;2023-07-31T08:36:30;5.28;;;2.88;;
11034;SDS011;5571;48.110;-1.706;2023-07-31T08:38:55;7.80;;;3.30;;
11034;SDS011;5571;48.110;-1.706;2023-07-31T08:41:21;7.85;;;3.17;;
11034;SDS011;5571;48.110;-1.706;2023-07-31T08:43:47;8.85;;;3.38;;
11034;SDS011;5571;48.110;-1.706;2023-07-31T08:46:14;5.97;;;3.05;;
11034;SDS011;5571;48.110;-1.706;2023-07-31T08:48:41;9.77;;;3.22;;
11034;SDS011;5571;48.110;-1.706;2023-07-31T08:51:07;5.80;;;2.75;;
11034;SDS011;5571;48.110;-1.706;2023-07-31T08:53:33;7.78;;;2.65;;
11034;SDS011;5571;48.110;-1.706;2023-07-31T08:55:59;6.15;;;2.90;;
11034;SDS011;5571;48.110;-1.706;2023-07-31T08:58:25;7.05;;;3.00;;
11034;SDS011;5571;48.110;-1.706;2023-07-31T09:00:55;5.50;;;2.75;;
11034;SDS011;5571;48.110;-1.706;2023-07-31T09:03:23;6.47;;;2.90;;
11034;SDS011;5571;48.110;-1.706;2023-07-31T09:05:50;12.32;;;3.00;;
11034;SDS011;5571;48.110;-1.706;2023-07-31T09:08:21;8.48;;;3.20;;
11034;SDS011;5571;48.110;-1.706;2023-07-31T09:10:47;5.90;;;2.80;;
11034;SDS011;5571;48.110;-1.706;2023-07-31T09:13:15;6.47;;;2.83;;
11034;SDS011;5571;48.110;-1.706;2023-07-31T09:15:43;9.75;;;3.08;;
11034;SDS011;5571;48.110;-1.706;2023-07-31T09:18:10;5.88;;;3.10;;
11034;SDS011;5571;48.110;-1.706;2023-07-31T09:20:36;6.05;;;2.83;;
11034;SDS011;5571;48.110;-1.706;2023-07-31T09:25:39;7.20;;;3.35;;
11034;SDS011;5571;48.110;-1.706;2023-07-31T09:28:08;9.18;;;3.33;;
11034;SDS011;5571;48.110;-1.706;2023-07-31T09:30:45;5.07;;;2.83;;
11034;SDS011;5571;48.110;-1.706;2023-07-31T09:33:14;7.30;;;3.83;;
11034;SDS011;5571;48.110;-1.706;2023-07-31T09:35:40;7.68;;;3.17;;
11034;SDS011;5571;48.110;-1.706;2023-07-31T09:38:07;5.18;;;2.70;;
11034;SDS011;5571;48.110;-1.706;2023-07-31T09:40:36;7.07;;;2.90;;
11034;SDS011;5571;48.110;-1.706;2023-07-31T09:43:03;11.40;;;3.60;;
11034;SDS011;5571;48.110;-1.706;2023-07-31T09:45:33;7.65;;;3.60;;
11034;SDS011;5571;48.110;-1.706;2023-07-31T09:48:12;6.93;;;3.35;;
11034;SDS011;5571;48.110;-1.706;2023-07-31T09:50:42;6.53;;;3.72;;
11034;SDS011;5571;48.110;-1.706;2023-07-31T09:53:10;9.93;;;4.00;;
11034;SDS011;5571;48.110;-1.706;2023-07-31T09:55:36;8.63;;;4.20;;
11034;SDS011;5571;48.110;-1.706;2023-07-31T09:58:03;12.48;;;4.78;;
11034;SDS011;5571;48.110;-1.706;2023-07-31T10:00:30;8.60;;;4.03;;
11034;SDS011;5571;48.110;-1.706;2023-07-31T10:03:00;13.85;;;4.50;;
11034;SDS011;5571;48.110;-1.706;2023-07-31T10:05:31;12.32;;;4.00;;
11034;SDS011;5571;48.110;-1.706;2023-07-31T10:08:07;13.18;;;4.68;;
11034;SDS011;5571;48.110;-1.706;2023-07-31T10:10:35;7.60;;;4.40;;
11034;SDS011;5571;48.110;-1.706;2023-07-31T10:13:02;11.93;;;4.57;;
11034;SDS011;5571;48.110;-1.706;2023-07-31T10:15:29;9.25;;;4.18;;
11034;SDS011;5571;48.110;-1.706;2023-07-31T10:17:56;12.93;;;4.60;;
11034;SDS011;5571;48.110;-1.706;2023-07-31T10:20:24;11.95;;;4.78;;
11034;SDS011;5571;48.110;-1.706;2023-07-31T10:22:51;12.73;;;4.68;;
11034;SDS011;5571;48.110;-1.706;2023-07-31T10:25:18;12.35;;;5.10;;
11034;SDS011;5571;48.110;-1.706;2023-07-31T10:27:45;10.38;;;4.45;;
11034;SDS011;5571;48.110;-1.706;2023-07-31T10:30:13;12.32;;;4.63;;
11034;SDS011;5571;48.110;-1.706;2023-07-31T10:32:42;9.90;;;4.80;;
11034;SDS011;5571;48.110;-1.706;2023-07-31T10:35:09;8.70;;;4.57;;
11034;SDS011;5571;48.110;-1.706;2023-07-31T10:37:36;13.75;;;4.93;;
11034;SDS011;5571;48.110;-1.706;2023-07-31T10:40:15;15.23;;;4.75;;
11034;SDS011;5571;48.110;-1.706;2023-07-31T10:42:46;12.50;;;5.13;;
11034;SDS011;5571;48.110;-1.706;2023-07-31T10:45:12;12.27;;;4.93;;
11034;SDS011;5571;48.110;-1.706;2023-07-31T10:47:39;15.35;;;5.40;;
11034;SDS011;5571;48.110;-1.706;2023-07-31T10:50:21;14.32;;;4.97;;
11034;SDS011;5571;48.110;-1.706;2023-07-31T10:52:52;14.45;;;5.20;;
11034;SDS011;5571;48.110;-1.706;2023-07-31T10:57:56;14.57;;;5.10;;
11034;SDS011;5571;48.110;-1.706;2023-07-31T11:00:27;13.55;;;5.28;;
11034;SDS011;5571;48.110;-1.706;2023-07-31T11:02:57;9.02;;;4.38;;
11034;SDS011;5571;48.110;-1.706;2023-07-31T11:05:43;9.20;;;4.28;;
11034;SDS011;5571;48.110;-1.706;2023-07-31T11:08:27;10.18;;;4.32;;
11034;SDS011;5571;48.110;-1.706;2023-07-31T11:11:10;7.00;;;3.72;;
11034;SDS011;5571;48.110;-1.706;2023-07-31T11:13:50;7.93;;;3.70;;
11034;SDS011;5571;48.110;-1.706;2023-07-31T11:16:26;10.43;;;3.78;;
11034;SDS011;5571;48.110;-1.706;2023-07-31T11:18:52;5.85;;;3.70;;
11034;SDS011;5571;48.110;-1.706;2023-07-31T11:21:21;9.65;;;3.75;;
11034;SDS011;5571;48.110;-1.706;2023-07-31T11:23:48;9.35;;;4.22;;
11034;SDS011;5571;48.110;-1.706;2023-07-31T11:26:16;8.25;;;4.10;;
11034;SDS011;5571;48.110;-1.706;2023-07-31T11:28:42;8.30;;;3.80;;
11034;SDS011;5571;48.110;-1.706;2023-07-31T11:31:09;9.48;;;4.30;;
11034;SDS011;5571;48.110;-1.706;2023-07-31T11:33:35;7.65;;;4.13;;
11034;SDS011;5571;48.110;-1.706;2023-07-31T11:36:00;8.82;;;4.55;;
11034;SDS011;5571;48.110;-1.706;2023-07-31T11:38:28;11.68;;;4.43;;
11034;SDS011;5571;48.110;-1.706;2023-07-31T11:40:59;8.52;;;4.03;;
11034;SDS011;5571;48.110;-1.706;2023-07-31T11:43:29;8.02;;;3.55;;
11034;SDS011;5571;48.110;-1.706;2023-07-31T11:45:57;10.48;;;4.32;;
11034;SDS011;5571;48.110;-1.706;2023-07-31T11:48:24;8.48;;;3.92;;
11034;SDS011;5571;48.110;-1.706;2023-07-31T11:50:56;12.15;;;4.28;;
11034;SDS011;5571;48.110;-1.706;2023-07-31T11:53:27;6.88;;;3.53;;
11034;SDS011;5571;48.110;-1.706;2023-07-31T11:55:57;10.35;;;3.92;;
11034;SDS011;5571;48.110;-1.706;2023-07-31T11:58:25;8.02;;;4.10;;
11034;SDS011;5571;48.110;-1.706;2023-07-31T12:00:51;7.60;;;4.07;;
11034;SDS011;5571;48.110;-1.706;2023-07-31T12:03:17;9.02;;;4.65;;
11034;SDS011;5571;48.110;-1.706;2023-07-31T12:05:43;10.55;;;4.32;;
11034;SDS011;5571;48.110;-1.706;2023-07-31T12:08:11;9.38;;;4.47;;
11034;SDS011;5571;48.110;-1.706;2023-07-31T12:10:37;7.72;;;4.40;;
11034;SDS011;5571;48.110;-1.706;2023-07-31T12:13:07;9.93;;;4.45;;
11034;SDS011;5571;48.110;-1.706;2023-07-31T12:15:54;11.88;;;4.10;;
11034;SDS011;5571;48.110;-1.706;2023-07-31T12:18:22;9.25;;;3.97;;
11034;SDS011;5571;48.110;-1.706;2023-07-31T12:20:53;6.88;;;3.80;;
11034;SDS011;5571;48.110;-1.706;2023-07-31T12:23:33;6.25;;;3.97;;
11034;SDS011;5571;48.110;-1.706;2023-07-31T12:26:07;7.25;;;3.83;;
11034;SDS011;5571;48.110;-1.706;2023-07-31T12:31:05;5.40;;;3.45;;
11034;SDS011;5571;48.110;-1.706;2023-07-31T12:33:34;9.00;;;3.40;;
11034;SDS011;5571;48.110;-1.706;2023-07-31T12:36:06;4.60;;;2.72;;
11034;SDS011;5571;48.110;-1.706;2023-07-31T12:38:39;4.53;;;2.78;;
11034;SDS011;5571;48.110;-1.706;2023-07-31T12:41:05;5.30;;;3.00;;
11034;SDS011;5571;48.110;-1.706;2023-07-31T12:43:37;3.58;;;2.85;;
11034;SDS011;5571;48.110;-1.706;2023-07-31T12:46:04;5.65;;;2.72;;
11034;SDS011;5571;48.110;-1.706;2023-07-31T12:48:31;4.45;;;2.60;;
11034;SDS011;5571;48.110;-1.706;2023-07-31T12:50:57;4.05;;;2.53;;
11034;SDS011;5571;48.110;-1.706;2023-07-31T12:53:23;4.50;;;2.47;;
11034;SDS011;5571;48.110;-1.706;2023-07-31T12:55:48;3.90;;;2.45;;
11034;SDS011;5571;48.110;-1.706;2023-07-31T12:58:15;7.75;;;2.67;;
11034;SDS011;5571;48.110;-1.706;2023-07-31T13:00:40;2.92;;;2.15;;
11034;SDS011;5571;48.110;-1.706;2023-07-31T13:03:06;4.45;;;2.33;;
11034;SDS011;5571;48.110;-1.706;2023-07-31T13:05:32;3.00;;;2.20;;
11034;SDS011;5571;48.110;-1.706;2023-07-31T13:07:57;3.90;;;2.33;;
11034;SDS011;5571;48.110;-1.706;2023-07-31T13:10:23;4.07;;;2.30;;
11034;SDS011;5571;48.110;-1.706;2023-07-31T13:12:51;3.72;;;2.10;;
11034;SDS011;5571;48.110;-1.706;2023-07-31T13:15:17;4.45;;;2.25;;
11034;SDS011;5571;48.110;-1.706;2023-07-31T13:17:42;2.05;;;1.70;;
11034;SDS011;5571;48.110;-1.706;2023-07-31T13:20:08;2.42;;;1.90;;
11034;SDS011;5571;48.110;-1.706;2023-07-31T13:22:34;4.32;;;2.05;;
11034;SDS011;5571;48.110;-1.706;2023-07-31T13:25:00;2.00;;;1.60;;
11034;SDS011;5571;48.110;-1.706;2023-07-31T13:27:25;3.15;;;1.95;;
11034;SDS011;5571;48.110;-1.706;2023-07-31T13:29:51;4.05;;;2.13;;
11034;SDS011;5571;48.110;-1.706;2023-07-31T13:32:17;1.70;;;1.60;;
11034;SDS011;5571;48.110;-1.706;2023-07-31T13:34:44;5.75;;;1.80;;
11034;SDS011;5571;48.110;-1.706;2023-07-31T13:37:10;1.80;;;1.60;;
11034;SDS011;5571;48.110;-1.706;2023-07-31T13:39:36;2.38;;;1.65;;
11034;SDS011;5571;48.110;-1.706;2023-07-31T13:42:03;2.40;;;1.92;;
11034;SDS011;5571;48.110;-1.706;2023-07-31T13:44:31;1.83;;;1.60;;
11034;SDS011;5571;48.110;-1.706;2023-07-31T13:46:57;2.15;;;1.95;;
11034;SDS011;5571;48.110;-1.706;2023-07-31T13:49:23;2.17;;;1.80;;
11034;SDS011;5571;48.110;-1.706;2023-07-31T13:51:48;2.58;;;2.03;;
11034;SDS011;5571;48.110;-1.706;2023-07-31T13:54:14;4.05;;;2.03;;
11034;SDS011;5571;48.110;-1.706;2023-07-31T13:56:40;3.58;;;1.95;;
11034;SDS011;5571;48.110;-1.706;2023-07-31T13:59:06;3.05;;;1.90;;
11034;SDS011;5571;48.110;-1.706;2023-07-31T14:01:32;3.38;;;2.10;;
11034;SDS011;5571;48.110;-1.706;2023-07-31T14:03:57;4.40;;;1.95;;
11034;SDS011;5571;48.110;-1.706;2023-07-31T14:06:23;4.63;;;2.10;;
11034;SDS011;5571;48.110;-1.706;2023-07-31T14:08:49;4.78;;;2.13;;
11034;SDS011;5571;48.110;-1.706;2023-07-31T14:11:14;1.75;;;1.65;;
11034;SDS011;5571;48.110;-1.706;2023-07-31T14:13:40;3.55;;;2.00;;
11034;SDS011;5571;48.110;-1.706;2023-07-31T14:16:05;5.00;;;2.20;;
11034;SDS011;5571;48.110;-1.706;2023-07-31T14:18:31;8.98;;;2.53;;
11034;SDS011;5571;48.110;-1.706;2023-07-31T14:20:57;4.20;;;2.40;;
11034;SDS011;5571;48.110;-1.706;2023-07-31T14:23:22;3.55;;;2.10;;
11034;SDS011;5571;48.110;-1.706;2023-07-31T14:25:48;3.10;;;2.00;;
11034;SDS011;5571;48.110;-1.706;2023-07-31T14:28:14;5.97;;;2.17;;
11034;SDS011;5571;48.110;-1.706;2023-07-31T14:30:39;3.47;;;2.28;;
11034;SDS011;5571;48.110;-1.706;2023-07-31T14:33:05;4.20;;;2.30;;
11034;SDS011;5571;48.110;-1.706;2023-07-31T14:35:30;2.60;;;2.13;;
11034;SDS011;5571;48.110;-1.706;2023-07-31T14:37:56;1.92;;;1.73;;
11034;SDS011;5571;48.110;-1.706;2023-07-31T14:40:22;2.33;;;2.00;;
11034;SDS011;5571;48.110;-1.706;2023-07-31T14:42:48;2.63;;;1.90;;
11034;SDS011;5571;48.110;-1.706;2023-07-31T14:45:13;3.25;;;1.90;;
11034;SDS011;5571;48.110;-1.706;2023-07-31T14:47:39;4.32;;;2.10;;